Time;durP1;ratioP1;P1;durP2;ratioP2;P2;SDS_P1;SDS_P2;PMS_P1;PMS_P2;Temp;Humidity;BMP_temperature;BMP_pressure;BME280_temperature;BME280_humidity;BME280_pressure;Samples;Min_cycle;Max_cycle;Signal;HPM_P1;HPM_P2
2022/04/11 00:01:28;;;;;;;;;;;;;;;;;;5050367;28;696;-68
2022/04/11 00:03:54;;;;;;;;;;;;;;;;;;5050309;28;1313;-68
2022/04/11 00:06:21;;;;;;;;;;;;;;;;;;5049857;28;1108;-68
2022/04/11 00:08:47;;;;;;;;;;;;;;;;;;5050295;28;1047;-69
2022/04/11 00:11:13;;;;;;;;;;;;;;;;;;5049805;28;1055;-69
2022/04/11 00:13:39;;;;;;;;;;;;;;;;;;5049782;28;1928;-68
2022/04/11 00:16:07;;;;;;;;;;;;;;;;;;5050648;28;929;-69
2022/04/11 00:18:33;;;;;;;;;;;;;;;;;;5053226;28;1479;-69
2022/04/11 00:20:59;;;;;;;;;;;;;;;;;;5053603;28;1173;-69
2022/04/11 00:23:26;;;;;;;;;;;;;;;;;;5053721;28;1290;-69
2022/04/11 00:25:52;;;;;;;;;;;;;;;;;;5053660;28;1153;-68
2022/04/11 00:28:18;;;;;;;;;;;;;;;;;;5053560;28;952;-68
2022/04/11 00:30:44;;;;;;;;;;;;;;;;;;5053611;28;1134;-68
2022/04/11 00:33:12;;;;;;;;;;;;;;;;;;5053368;28;1922;-68
2022/04/11 00:35:39;;;;;;;;;;;;;;;;;;5053548;28;885;-68
2022/04/11 00:38:05;;;;;;;;;;;;;;;;;;5053191;28;1289;-69
2022/04/11 00:40:31;;;;;;;;;;;;;;;;;;5051963;28;1158;-68
2022/04/11 00:42:58;;;;;;;;;;;;;;;;;;5053212;28;1394;-68
2022/04/11 00:45:24;;;;;;;;;;;;;;;;;;5053463;28;790;-68
2022/04/11 00:47:50;;;;;;;;;;;;;;;;;;5052978;28;838;-69
2022/04/11 00:50:18;;;;;;;;;;;;;;;;;;5051783;28;1266;-68
2022/04/11 00:52:45;;;;;;;;;;;;;;;;;;5051877;28;1360;-68
2022/04/11 00:55:11;;;;;;;;;;;;;;;;;;5068101;28;1969;-68
2022/04/11 00:57:39;;;;;;;;;;;;;;;;;;5052921;28;1079;-68
2022/04/11 01:00:07;;;;;;;;;;;;;;;;;;5052911;28;802;-68
2022/04/11 01:02:34;;;;;;;;;;;;;;;;;;5068381;28;1374;-69
2022/04/11 01:05:00;;;;;;;;;;;;;;;;;;5052737;28;1429;-69
2022/04/11 01:07:27;;;;;;;;;;;;;;;;;;5052753;28;1055;-68
2022/04/11 01:09:54;;;;;;;;;;;;;;;;;;5068249;28;1622;-68
2022/04/11 01:12:20;;;;;;;;;;;;;;;;;;5068105;28;1177;-67
2022/04/11 01:14:47;;;;;;;;;;;;;;;;;;5068243;28;1906;-68
2022/04/11 01:17:13;;;;;;;;;;;;;;;;;;5052260;28;1130;-68
2022/04/11 01:19:39;;;;;;;;;;;;;;;;;;5053225;28;1003;-68
2022/04/11 01:22:07;;;;;;;;;;;;;;;;;;5052878;28;1099;-67
2022/04/11 01:24:36;;;;;;;;;;;;;;;;;;5051383;28;1401;-68
2022/04/11 01:27:03;;;;;;;;;;;;;;;;;;5052184;28;873;-68
2022/04/11 01:29:30;;;;;;;;;;;;;;;;;;5051291;28;1569;-68
2022/04/11 01:31:56;;;;;;;;;;;;;;;;;;5051187;28;1159;-70
2022/04/11 01:34:22;;;;;;;;;;;;;;;;;;5052238;28;1918;-68
2022/04/11 01:36:49;;;;;;;;;;;;;;;;;;5052215;28;782;-69
2022/04/11 01:39:17;;;;;;;;;;;;;;;;;;5051171;28;1578;-69
2022/04/11 01:41:43;;;;;;;;;;;;;;;;;;5067554;28;1199;-69
2022/04/11 01:44:09;;;;;;;;;;;;;;;;;;5050919;28;1401;-69
2022/04/11 01:46:36;;;;;;;;;;;;;;;;;;5050523;28;937;-69
2022/04/11 01:49:12;;;;;;;;;;;;;;;;;;5050822;28;1674;-69
2022/04/11 01:51:39;;;;;;;;;;;;;;;;;;5050768;28;1165;-69
2022/04/11 01:54:05;;;;;;;;;;;;;;;;;;5052043;28;1981;-69
2022/04/11 01:56:33;;;;;;;;;;;;;;;;;;5050359;28;1622;-68
2022/04/11 01:59:00;;;;;;;;;;;;;;;;;;5067247;28;1394;-68
2022/04/11 02:01:27;;;;;;;;;;;;;;;;;;5051744;28;1059;-69
2022/04/11 02:03:53;;;;;;;;;;;;;;;;;;5066917;28;1340;-69
2022/04/11 02:06:19;;;;;;;;;;;;;;;;;;5066958;28;1355;-69
2022/04/11 02:08:46;;;;;;;;;;;;;;;;;;5067238;28;1713;-68
2022/04/11 02:11:15;;;;;;;;;;;;;;;;;;5066674;28;1054;-68
2022/04/11 02:13:42;;;;;;;;;;;;;;;;;;5067212;28;1332;-69
2022/04/11 02:16:08;;;;;;;;;;;;;;;;;;5066652;28;2894;-69
2022/04/11 02:18:35;;;;;;;;;;;;;;;;;;5064610;28;1120;-69
2022/04/11 02:21:01;;;;;;;;;;;;;;;;;;5049894;28;1323;-70
2022/04/11 02:23:28;;;;;;;;;;;;;;;;;;5051643;28;1301;-69
2022/04/11 02:25:55;;;;;;;;;;;;;;;;;;5050870;28;1549;-68
2022/04/11 02:28:22;;;;;;;;;;;;;;;;;;5050028;28;942;-68
2022/04/11 02:30:51;;;;;;;;;;;;;;;;;;5050106;28;1171;-68
2022/04/11 02:33:18;;;;;;;;;;;;;;;;;;5051221;28;1372;-69
2022/04/11 02:35:44;;;;;;;;;;;;;;;;;;5049848;28;1973;-69
2022/04/11 02:38:11;;;;;;;;;;;;;;;;;;5049504;28;1231;-69
2022/04/11 02:40:39;;;;;;;;;;;;;;;;;;5049569;28;1355;-69
2022/04/11 02:43:12;;;;;;;;;;;;;;;;;;5046897;28;1520;-69
2022/04/11 02:45:46;;;;;;;;;;;;;;;;;;5046109;28;1204;-68
2022/04/11 02:48:17;;;;;;;;;;;;;;;;;;5041723;28;1624;-68
2022/04/11 02:50:51;;;;;;;;;;;;;;;;;;5048159;28;1602;-68
2022/04/11 02:53:21;;;;;;;;;;;;;;;;;;5050263;28;1344;-69
2022/04/11 02:55:47;;;;;;;;;;;;;;;;;;5050529;28;1974;-68
2022/04/11 02:58:15;;;;;;;;;;;;;;;;;;5049328;28;1591;-69
2022/04/11 03:00:42;;;;;;;;;;;;;;;;;;5049609;28;1190;-68
2022/04/11 03:03:10;;;;;;;;;;;;;;;;;;5049289;28;1463;-68
2022/04/11 03:05:38;;;;;;;;;;;;;;;;;;5049307;28;1282;-69
2022/04/11 03:08:07;;;;;;;;;;;;;;;;;;5050354;28;888;-69
2022/04/11 03:10:33;;;;;;;;;;;;;;;;;;5049250;28;1256;-68
2022/04/11 03:13:04;;;;;;;;;;;;;;;;;;5049301;28;1388;-68
2022/04/11 03:15:32;;;;;;;;;;;;;;;;;;5049271;28;1922;-68
2022/04/11 03:18:01;;;;;;;;;;;;;;;;;;5049002;28;1226;-68
2022/04/11 03:20:28;;;;;;;;;;;;;;;;;;5040892;28;1291;-68
2022/04/11 03:22:57;;;;;;;;;;;;;;;;;;5048931;28;1334;-68
2022/04/11 03:25:24;;;;;;;;;;;;;;;;;;5049228;28;1346;-67
2022/04/11 03:27:50;;;;;;;;;;;;;;;;;;5048853;28;844;-67
2022/04/11 03:30:19;;;;;;;;;;;;;;;;;;5048973;28;1316;-69
2022/04/11 03:32:45;;;;;;;;;;;;;;;;;;5050334;28;1363;-67
2022/04/11 03:35:13;;;;;;;;;;;;;;;;;;5049049;28;1910;-67
2022/04/11 03:37:41;;;;;;;;;;;;;;;;;;5049100;28;852;-67
2022/04/11 03:40:22;;;;;;;;;;;;;;;;;;5047296;28;1483;-68
2022/04/11 03:42:49;;;;;;;;;;;;;;;;;;5048520;28;1579;-68
2022/04/11 03:45:15;;;;;;;;;;;;;;;;;;5049805;28;1593;-68
2022/04/11 03:47:45;;;;;;;;;;;;;;;;;;5043715;28;1609;-68
2022/04/11 03:50:14;;;;;;;;;;;;;;;;;;5048982;28;1337;-68
2022/04/11 03:52:42;;;;;;;;;;;;;;;;;;5052179;28;1638;-68
2022/04/11 03:55:10;;;;;;;;;;;;;;;;;;5052453;28;1918;-68
2022/04/11 03:57:41;;;;;;;;;;;;;;;;;;5052437;28;1661;-68
2022/04/11 04:00:08;;;;;;;;;;;;;;;;;;5052238;28;1638;-69
2022/04/11 04:02:43;;;;;;;;;;;;;;;;;;5048934;28;1322;-69
2022/04/11 04:05:10;;;;;;;;;;;;;;;;;;5051821;28;1536;-69
2022/04/11 04:07:37;;;;;;;;;;;;;;;;;;5052629;28;1568;-67
2022/04/11 04:10:03;;;;;;;;;;;;;;;;;;5052660;28;1446;-69
2022/04/11 04:12:30;;;;;;;;;;;;;;;;;;5052162;28;1582;-68
2022/04/11 04:15:12;;;;;;;;;;;;;;;;;;5032362;28;1985;-68
2022/04/11 04:17:44;;;;;;;;;;;;;;;;;;5050195;28;1670;-70
2022/04/11 04:20:10;;;;;;;;;;;;;;;;;;5052167;28;1335;-69
2022/04/11 04:22:37;;;;;;;;;;;;;;;;;;5051859;28;1629;-69
2022/04/11 04:25:06;;;;;;;;;;;;;;;;;;5051786;28;1638;-69
2022/04/11 04:27:32;;;;;;;;;;;;;;;;;;5043590;28;1630;-68
2022/04/11 04:29:58;;;;;;;;;;;;;;;;;;5044823;28;1375;-68
2022/04/11 04:32:26;;;;;;;;;;;;;;;;;;5068456;28;1589;-69
2022/04/11 04:34:52;;;;;;;;;;;;;;;;;;5051257;28;1914;-69
2022/04/11 04:37:21;;;;;;;;;;;;;;;;;;5051699;28;1582;-69
2022/04/11 04:39:49;;;;;;;;;;;;;;;;;;5051680;28;1323;-68
2022/04/11 04:42:20;;;;;;;;;;;;;;;;;;5051514;28;1339;-68
2022/04/11 04:44:46;;;;;;;;;;;;;;;;;;5052111;28;1678;-67
2022/04/11 04:47:15;;;;;;;;;;;;;;;;;;5050363;28;1312;-68
2022/04/11 04:49:43;;;;;;;;;;;;;;;;;;5051915;28;1447;-69
2022/04/11 04:52:12;;;;;;;;;;;;;;;;;;5048392;28;1343;-68
2022/04/11 04:54:52;;;;;;;;;;;;;;;;;;5042852;28;1985;-68
2022/04/11 04:57:19;;;;;;;;;;;;;;;;;;5047330;28;1371;-69
2022/04/11 04:59:45;;;;;;;;;;;;;;;;;;5052624;28;1473;-69
2022/04/11 05:02:19;;;;;;;;;;;;;;;;;;5035148;28;1502;-69
2022/04/11 05:04:47;;;;;;;;;;;;;;;;;;5040476;28;1425;-69
2022/04/11 05:07:14;;;;;;;;;;;;;;;;;;5048358;28;1163;-69
2022/04/11 05:09:42;;;;;;;;;;;;;;;;;;5034935;28;1197;-69
2022/04/11 05:12:09;;;;;;;;;;;;;;;;;;5046800;28;1182;-69
2022/04/11 05:14:37;;;;;;;;;;;;;;;;;;5036530;28;1399;-69
2022/04/11 05:17:10;;;;;;;;;;;;;;;;;;5048919;28;1310;-69
2022/04/11 05:19:37;;;;;;;;;;;;;;;;;;5048011;28;1328;-69
2022/04/11 05:22:06;;;;;;;;;;;;;;;;;;5042187;28;1321;-69
2022/04/11 05:24:33;;;;;;;;;;;;;;;;;;5041620;28;1546;-69
2022/04/11 05:27:00;;;;;;;;;;;;;;;;;;5040398;28;1828;-69
2022/04/11 05:29:27;;;;;;;;;;;;;;;;;;5039473;28;1538;-69
2022/04/11 05:31:53;;;;;;;;;;;;;;;;;;5041160;28;1435;-69
2022/04/11 05:34:20;;;;;;;;;;;;;;;;;;5040223;28;1553;-69
2022/04/11 05:36:46;;;;;;;;;;;;;;;;;;5039201;28;1977;-70
2022/04/11 05:39:15;;;;;;;;;;;;;;;;;;5041438;28;1582;-69
2022/04/11 05:41:41;;;;;;;;;;;;;;;;;;5042269;28;1251;-70
2022/04/11 05:44:08;;;;;;;;;;;;;;;;;;5040796;28;1408;-69
2022/04/11 05:46:40;;;;;;;;;;;;;;;;;;5047767;28;1450;-68
2022/04/11 05:49:11;;;;;;;;;;;;;;;;;;5050622;28;1407;-68
2022/04/11 05:51:37;;;;;;;;;;;;;;;;;;5050438;28;1418;-69
2022/04/11 05:54:03;;;;;;;;;;;;;;;;;;5050848;28;1394;-68
2022/04/11 05:56:33;;;;;;;;;;;;;;;;;;5050246;28;1914;-70
2022/04/11 05:59:03;;;;;;;;;;;;;;;;;;5052111;28;1654;-70
2022/04/11 06:01:31;;;;;;;;;;;;;;;;;;5055399;28;1486;-69
2022/04/11 06:03:57;;;;;;;;;;;;;;;;;;5055461;28;1306;-70
2022/04/11 06:06:23;;;;;;;;;;;;;;;;;;5047484;28;1046;-70
2022/04/11 06:08:51;;;;;;;;;;;;;;;;;;5049920;28;1189;-70
2022/04/11 06:11:17;;;;;;;;;;;;;;;;;;5049788;28;1361;-70
2022/04/11 06:13:47;;;;;;;;;;;;;;;;;;5048821;28;1429;-70
2022/04/11 06:16:14;;;;;;;;;;;;;;;;;;5064823;28;1911;-70
2022/04/11 06:18:40;;;;;;;;;;;;;;;;;;5050200;28;1284;-69
2022/04/11 06:21:07;;;;;;;;;;;;;;;;;;5050052;28;1552;-69
2022/04/11 06:23:33;;;;;;;;;;;;;;;;;;5051494;28;1318;-69
2022/04/11 06:26:01;;;;;;;;;;;;;;;;;;5049974;28;1290;-70
2022/04/11 06:28:32;;;;;;;;;;;;;;;;;;5049915;28;1492;-70
2022/04/11 06:31:01;;;;;;;;;;;;;;;;;;5049999;28;1383;-69
2022/04/11 06:33:27;;;;;;;;;;;;;;;;;;5050986;28;1393;-69
2022/04/11 06:35:53;;;;;;;;;;;;;;;;;;5051946;28;1935;-70
2022/04/11 06:38:20;;;;;;;;;;;;;;;;;;5049572;28;1208;-70
2022/04/11 06:40:46;;;;;;;;;;;;;;;;;;5049536;28;1488;-68
2022/04/11 06:43:12;;;;;;;;;;;;;;;;;;5048745;28;1498;-70
2022/04/11 06:45:58;;;;;;;;;;;;;;;;;;5049671;28;1480;-70
2022/04/11 06:48:26;;;;;;;;;;;;;;;;;;5049155;28;1298;-70
2022/04/11 06:50:53;;;;;;;;;;;;;;;;;;5049290;28;1087;-70
2022/04/11 06:53:20;;;;;;;;;;;;;;;;;;5051043;28;1308;-70
2022/04/11 06:55:47;;;;;;;;;;;;;;;;;;5049473;28;1918;-68
2022/04/11 06:58:13;;;;;;;;;;;;;;;;;;5050367;28;802;-69
2022/04/11 07:00:39;;;;;;;;;;;;;;;;;;5050508;28;897;-69
2022/04/11 07:03:06;;;;;;;;;;;;;;;;;;5050783;28;1400;-69
2022/04/11 07:05:34;;;;;;;;;;;;;;;;;;5050386;28;1063;-69
2022/04/11 07:08:00;;;;;;;;;;;;;;;;;;5048926;28;1112;-70
2022/04/11 07:10:26;;;;;;;;;;;;;;;;;;5050566;28;961;-68
2022/04/11 07:12:52;;;;;;;;;;;;;;;;;;5050446;28;1357;-68
2022/04/11 07:15:18;;;;;;;;;;;;;;;;;;5050454;28;1914;-69
2022/04/11 07:17:45;;;;;;;;;;;;;;;;;;5050289;28;953;-69
2022/04/11 07:20:12;;;;;;;;;;;;;;;;;;5050482;28;680;-68
2022/04/11 07:22:39;;;;;;;;;;;;;;;;;;5050316;28;1067;-69
2022/04/11 07:25:06;;;;;;;;;;;;;;;;;;5049626;28;1294;-69
2022/04/11 07:27:32;;;;;;;;;;;;;;;;;;5050472;28;1100;-69
2022/04/11 07:29:58;;;;;;;;;;;;;;;;;;5050508;28;942;-69
2022/04/11 07:32:24;;;;;;;;;;;;;;;;;;5050369;28;1075;-69
2022/04/11 07:34:50;;;;;;;;;;;;;;;;;;5050158;28;1277;-69
2022/04/11 07:37:17;;;;;;;;;;;;;;;;;;5049946;28;1971;-67
2022/04/11 07:39:44;;;;;;;;;;;;;;;;;;5049879;28;1132;-68
2022/04/11 07:42:10;;;;;;;;;;;;;;;;;;5044539;28;1162;-69
2022/04/11 07:44:36;;;;;;;;;;;;;;;;;;5049469;28;1324;-69
2022/04/11 07:47:03;;;;;;;;;;;;;;;;;;5049838;28;898;-69
2022/04/11 07:49:29;;;;;;;;;;;;;;;;;;5049526;28;1127;-69
2022/04/11 07:51:55;;;;;;;;;;;;;;;;;;5050077;28;1123;-69
2022/04/11 07:54:21;;;;;;;;;;;;;;;;;;5050174;28;1291;-69
2022/04/11 07:56:49;;;;;;;;;;;;;;;;;;5049896;28;1918;-69
2022/04/11 07:59:15;;;;;;;;;;;;;;;;;;5050211;28;1067;-70
2022/04/11 08:01:42;;;;;;;;;;;;;;;;;;5050274;28;866;-70
2022/04/11 08:04:08;;;;;;;;;;;;;;;;;;5049661;28;1399;-69
2022/04/11 08:06:34;;;;;;;;;;;;;;;;;;5049756;28;850;-69
2022/04/11 08:09:00;;;;;;;;;;;;;;;;;;5050005;28;1127;-69
2022/04/11 08:11:27;;;;;;;;;;;;;;;;;;5050010;28;905;-70
2022/04/11 08:13:54;;;;;;;;;;;;;;;;;;5049821;28;1302;-69
2022/04/11 08:16:20;;;;;;;;;;;;;;;;;;5049671;28;1981;-69
2022/04/11 08:18:46;;;;;;;;;;;;;;;;;;5040925;28;1131;-69
2022/04/11 08:21:13;;;;;;;;;;;;;;;;;;5030308;28;1243;-70
2022/04/11 08:23:39;;;;;;;;;;;;;;;;;;5039137;28;1463;-68
2022/04/11 08:26:05;;;;;;;;;;;;;;;;;;5038460;28;1341;-70
2022/04/11 08:28:31;;;;;;;;;;;;;;;;;;5038758;28;1255;-70
2022/04/11 08:30:59;;;;;;;;;;;;;;;;;;5039640;28;1306;-69
2022/04/11 08:33:25;;;;;;;;;;;;;;;;;;5040366;28;1290;-71
2022/04/11 08:35:51;;;;;;;;;;;;;;;;;;5038486;28;1973;-71
2022/04/11 08:38:17;;;;;;;;;;;;;;;;;;5043207;28;1418;-70
2022/04/11 08:40:43;;;;;;;;;;;;;;;;;;5042671;28;1259;-70
2022/04/11 08:43:10;;;;;;;;;;;;;;;;;;5041278;28;1583;-70
2022/04/11 08:45:37;;;;;;;;;;;;;;;;;;5043641;28;1266;-70
2022/04/11 08:48:05;;;;;;;;;;;;;;;;;;5042555;28;1115;-70
2022/04/11 08:50:31;;;;;;;;;;;;;;;;;;5040481;28;1359;-69
2022/04/11 08:52:58;;;;;;;;;;;;;;;;;;5043791;28;1482;-70
2022/04/11 08:55:24;;;;;;;;;;;;;;;;;;5042481;28;1335;-70
2022/04/11 08:57:50;;;;;;;;;;;;;;;;;;5042306;28;1926;-70
2022/04/11 09:00:17;;;;;;;;;;;;;;;;;;5043765;28;1334;-69
2022/04/11 09:02:44;;;;;;;;;;;;;;;;;;5042008;28;1351;-70
2022/04/11 09:05:12;;;;;;;;;;;;;;;;;;5044644;28;1463;-69
2022/04/11 09:07:44;;;;;;;;;;;;;;;;;;5033592;28;1693;-69
2022/04/11 09:10:10;;;;;;;;;;;;;;;;;;5041622;28;1128;-69
2022/04/11 09:12:37;;;;;;;;;;;;;;;;;;5051969;28;1237;-68
2022/04/11 09:15:05;;;;;;;;;;;;;;;;;;5049343;28;1779;-70
2022/04/11 09:17:33;;;;;;;;;;;;;;;;;;5032867;28;1979;-69
2022/04/11 09:20:07;;;;;;;;;;;;;;;;;;5032654;28;1806;-69
2022/04/11 09:22:35;;;;;;;;;;;;;;;;;;5032622;28;768;-70
2022/04/11 09:25:08;;;;;;;;;;;;;;;;;;5032560;28;1303;-70
2022/04/11 09:27:34;;;;;;;;;;;;;;;;;;5032508;28;1078;-70
2022/04/11 09:30:00;;;;;;;;;;;;;;;;;;5033039;28;1068;-69
2022/04/11 09:32:26;;;;;;;;;;;;;;;;;;5032863;28;1103;-69
2022/04/11 09:34:53;;;;;;;;;;;;;;;;;;5032173;28;1379;-69
2022/04/11 09:37:20;;;;;;;;;;;;;;;;;;5032636;28;1907;-70
2022/04/11 09:39:48;;;;;;;;;;;;;;;;;;5032775;28;1139;-70
2022/04/11 09:42:14;;;;;;;;;;;;;;;;;;5034033;28;1378;-69
2022/04/11 09:44:40;;;;;;;;;;;;;;;;;;5034012;28;1363;-70
2022/04/11 09:47:07;;;;;;;;;;;;;;;;;;5033769;28;1048;-70
2022/04/11 09:49:33;;;;;;;;;;;;;;;;;;5031516;28;1331;-70
2022/04/11 09:52:04;;;;;;;;;;;;;;;;;;5033926;28;992;-70
2022/04/11 09:54:30;;;;;;;;;;;;;;;;;;5033798;28;1323;-70
2022/04/11 09:56:58;;;;;;;;;;;;;;;;;;5033404;28;1970;-69
2022/04/11 09:59:24;;;;;;;;;;;;;;;;;;5033508;28;1056;-69
2022/04/11 10:01:51;;;;;;;;;;;;;;;;;;5033595;28;826;-69
2022/04/11 10:04:18;;;;;;;;;;;;;;;;;;5033382;28;1291;-70
2022/04/11 10:06:44;;;;;;;;;;;;;;;;;;5033184;28;1127;-70
2022/04/11 10:09:10;;;;;;;;;;;;;;;;;;5031962;28;1009;-69
2022/04/11 10:11:36;;;;;;;;;;;;;;;;;;5031720;28;794;-69
2022/04/11 10:14:04;;;;;;;;;;;;;;;;;;5031750;28;1326;-69
2022/04/11 10:16:30;;;;;;;;;;;;;;;;;;5031158;28;1914;-71
2022/04/11 10:19:00;;;;;;;;;;;;;;;;;;5031376;28;1064;-71
2022/04/11 10:21:26;;;;;;;;;;;;;;;;;;5031685;28;799;-71
2022/04/11 10:23:54;;;;;;;;;;;;;;;;;;5034343;28;1395;-73
2022/04/11 10:26:21;;;;;;;;;;;;;;;;;;5034006;28;1116;-70
2022/04/11 10:28:47;;;;;;;;;;;;;;;;;;5031167;28;1130;-70
2022/04/11 10:31:15;;;;;;;;;;;;;;;;;;5031461;28;1052;-70
2022/04/11 10:33:46;;;;;;;;;;;;;;;;;;5044425;28;1479;-70
2022/04/11 10:36:31;;;;;;;;;;;;;;;;;;5040432;28;1301;-69
2022/04/11 10:39:22;;;;;;;;;;;;;;;;;;5031077;28;909;-70
2022/04/11 10:42:09;;;;;;;;;;;;;;;;;;5016254;28;1421;-70
2022/04/11 10:44:36;;;;;;;;;;;;;;;;;;5031053;28;1402;-70
2022/04/11 10:47:22;;;;;;;;;;;;;;;;;;5030782;28;733;-71
2022/04/11 10:50:07;;;;;;;;;;;;;;;;;;5031024;28;914;-71
2022/04/11 10:52:36;;;;;;;;;;;;;;;;;;5030487;28;1036;-70
2022/04/11 10:55:04;;;;;;;;;;;;;;;;;;5030700;28;1314;-71
2022/04/11 10:57:34;;;;;;;;;;;;;;;;;;5030771;28;1915;-71
2022/04/11 11:00:07;;;;;;;;;;;;;;;;;;5030244;28;1154;-71
2022/04/11 11:02:52;;;;;;;;;;;;;;;;;;5030724;28;1116;-71
2022/04/11 11:05:25;;;;;;;;;;;;;;;;;;5030902;28;956;-71
2022/04/11 11:08:06;;;;;;;;;;;;;;;;;;5031386;28;1106;-70
2022/04/11 11:10:39;;;;;;;;;;;;;;;;;;5030387;28;1990;-72
2022/04/11 11:13:20;;;;;;;;;;;;;;;;;;5030814;28;1254;-70
2022/04/11 11:15:46;;;;;;;;;;;;;;;;;;5030563;28;1378;-72
2022/04/11 11:18:13;;;;;;;;;;;;;;;;;;5028982;28;1918;-71
2022/04/11 11:20:48;;;;;;;;;;;;;;;;;;5030669;28;1068;-71
2022/04/11 11:23:16;;;;;;;;;;;;;;;;;;5030790;28;1329;-70
2022/04/11 11:25:43;;;;;;;;;;;;;;;;;;5030212;28;1072;-70
2022/04/11 11:28:11;;;;;;;;;;;;;;;;;;5030353;28;1048;-72
2022/04/11 11:30:38;;;;;;;;;;;;;;;;;;5030519;28;961;-70
2022/04/11 11:33:04;;;;;;;;;;;;;;;;;;5030213;28;1514;-70
2022/04/11 11:35:30;;;;;;;;;;;;;;;;;;5030352;28;1047;-71
2022/04/11 11:38:02;;;;;;;;;;;;;;;;;;5029996;28;1919;-71
2022/04/11 11:40:29;;;;;;;;;;;;;;;;;;5033059;28;1172;-71
2022/04/11 11:42:56;;;;;;;;;;;;;;;;;;5030146;28;1289;-68
2022/04/11 11:45:26;;;;;;;;;;;;;;;;;;5029938;28;755;-70
2022/04/11 11:47:52;;;;;;;;;;;;;;;;;;5029901;28;823;-72
2022/04/11 11:50:19;;;;;;;;;;;;;;;;;;5029936;28;874;-71
2022/04/11 11:52:55;;;;;;;;;;;;;;;;;;5029976;28;1072;-72
2022/04/11 11:55:21;;;;;;;;;;;;;;;;;;5030347;28;968;-70
2022/04/11 11:57:52;;;;;;;;;;;;;;;;;;5028431;28;1906;-70
2022/04/11 12:00:18;;;;;;;;;;;;;;;;;;5027768;28;1235;-69
2022/04/11 12:05:29;;;;;;;;;;;;;;;;;;5030321;28;997;-70
2022/04/11 12:08:13;;;;;;;;;;;;;;;;;;5030121;28;1130;-69
2022/04/11 12:10:39;;;;;;;;;;;;;;;;;;5030359;28;940;-71
2022/04/11 12:13:07;;;;;;;;;;;;;;;;;;5033369;28;1322;-70
2022/04/11 12:15:33;;;;;;;;;;;;;;;;;;5035081;28;1012;-70
2022/04/11 12:18:01;;;;;;;;;;;;;;;;;;5034124;28;1910;-69
2022/04/11 12:20:30;;;;;;;;;;;;;;;;;;5034325;28;1015;-70
2022/04/11 12:23:00;;;;;;;;;;;;;;;;;;5033731;28;1306;-70
2022/04/11 12:25:27;;;;;;;;;;;;;;;;;;5033882;28;989;-70
2022/04/11 12:27:53;;;;;;;;;;;;;;;;;;5033305;28;1080;-69
2022/04/11 12:30:20;;;;;;;;;;;;;;;;;;5033718;28;1123;-70
2022/04/11 12:32:46;;;;;;;;;;;;;;;;;;5032148;28;1315;-70
2022/04/11 12:35:17;;;;;;;;;;;;;;;;;;5043609;28;1413;-70
2022/04/11 12:37:47;;;;;;;;;;;;;;;;;;5041216;28;1910;-69
2022/04/11 12:40:13;;;;;;;;;;;;;;;;;;5042175;28;1251;-70
2022/04/11 12:42:39;;;;;;;;;;;;;;;;;;5043570;28;1805;-70
2022/04/11 12:45:06;;;;;;;;;;;;;;;;;;5042372;28;1397;-70
2022/04/11 12:47:34;;;;;;;;;;;;;;;;;;5042244;28;1242;-70
2022/04/11 12:50:00;;;;;;;;;;;;;;;;;;5035566;28;1199;-70
2022/04/11 12:52:27;;;;;;;;;;;;;;;;;;5033206;28;1087;-70
2022/04/11 12:55:02;;;;;;;;;;;;;;;;;;5032914;28;1316;-71
2022/04/11 12:57:29;;;;;;;;;;;;;;;;;;5032635;28;1977;-70
2022/04/11 12:59:56;;;;;;;;;;;;;;;;;;5039004;28;1111;-70
2022/04/11 13:02:22;;;;;;;;;;;;;;;;;;5046963;28;1170;-69
2022/04/11 13:04:52;;;;;;;;;;;;;;;;;;5042640;28;1499;-69
2022/04/11 13:07:18;;;;;;;;;;;;;;;;;;5043257;28;1333;-68
2022/04/11 13:09:44;;;;;;;;;;;;;;;;;;5041937;28;1281;-69
2022/04/11 13:12:11;;;;;;;;;;;;;;;;;;5041842;28;1250;-70
2022/04/11 13:14:38;;;;;;;;;;;;;;;;;;5042565;28;1446;-69
2022/04/11 13:19:49;;;;;;;;;;;;;;;;;;5042038;28;1239;-69
2022/04/11 13:22:16;;;;;;;;;;;;;;;;;;5041305;28;1585;-69
2022/04/11 13:24:42;;;;;;;;;;;;;;;;;;5040802;28;1576;-70
2022/04/11 13:27:08;;;;;;;;;;;;;;;;;;5041997;28;1305;-68
2022/04/11 13:29:34;;;;;;;;;;;;;;;;;;5042883;28;1262;-69
2022/04/11 13:32:00;;;;;;;;;;;;;;;;;;5040860;28;1317;-69
2022/04/11 13:34:27;;;;;;;;;;;;;;;;;;5042117;28;1434;-69
2022/04/11 13:36:54;;;;;;;;;;;;;;;;;;5042003;28;1207;-69
2022/04/11 13:39:21;;;;;;;;;;;;;;;;;;5039061;28;1938;-71
2022/04/11 13:41:48;;;;;;;;;;;;;;;;;;5032169;28;1114;-70
2022/04/11 13:44:16;;;;;;;;;;;;;;;;;;5032581;28;1302;-70
2022/04/11 13:46:42;;;;;;;;;;;;;;;;;;5031628;28;874;-70
2022/04/11 13:49:09;;;;;;;;;;;;;;;;;;5031662;28;1068;-71
2022/04/11 13:51:35;;;;;;;;;;;;;;;;;;5031646;28;937;-69
2022/04/11 13:54:02;;;;;;;;;;;;;;;;;;5039085;28;1936;-70
2022/04/11 13:56:28;;;;;;;;;;;;;;;;;;5040207;28;1290;-69
2022/04/11 13:58:55;;;;;;;;;;;;;;;;;;5051664;28;1910;-70
2022/04/11 14:01:21;;;;;;;;;;;;;;;;;;5051845;28;984;-70
2022/04/11 14:03:47;;;;;;;;;;;;;;;;;;5051681;28;1304;-70
2022/04/11 14:06:13;;;;;;;;;;;;;;;;;;5068224;28;834;-70
2022/04/11 14:08:40;;;;;;;;;;;;;;;;;;5051713;28;1123;-70
2022/04/11 14:11:07;;;;;;;;;;;;;;;;;;5051011;28;1130;-71
2022/04/11 14:13:34;;;;;;;;;;;;;;;;;;5051813;28;1311;-70
2022/04/11 14:16:01;;;;;;;;;;;;;;;;;;5051572;28;1167;-70
2022/04/11 14:18:27;;;;;;;;;;;;;;;;;;5051424;28;1914;-70
2022/04/11 14:20:53;;;;;;;;;;;;;;;;;;5051583;28;972;-70
2022/04/11 14:23:19;;;;;;;;;;;;;;;;;;5051568;28;1420;-70
2022/04/11 14:25:46;;;;;;;;;;;;;;;;;;5050957;28;1701;-70
2022/04/11 14:28:13;;;;;;;;;;;;;;;;;;5050866;28;1319;-70
2022/04/11 14:30:40;;;;;;;;;;;;;;;;;;5050840;28;1001;-71
2022/04/11 14:33:06;;;;;;;;;;;;;;;;;;5047594;28;1478;-71
2022/04/11 14:35:32;;;;;;;;;;;;;;;;;;5050595;28;1103;-71
2022/04/11 14:37:59;;;;;;;;;;;;;;;;;;5050219;28;1981;-71
2022/04/11 14:40:25;;;;;;;;;;;;;;;;;;5051065;28;1131;-71
2022/04/11 14:42:51;;;;;;;;;;;;;;;;;;5051146;28;1313;-70
2022/04/11 14:45:19;;;;;;;;;;;;;;;;;;5050969;28;1071;-70
2022/04/11 14:47:46;;;;;;;;;;;;;;;;;;5050644;28;771;-70
2022/04/11 14:50:12;;;;;;;;;;;;;;;;;;5050982;28;1072;-70
2022/04/11 14:52:38;;;;;;;;;;;;;;;;;;5050990;28;949;-70
2022/04/11 14:55:05;;;;;;;;;;;;;;;;;;5050737;28;1360;-70
2022/04/11 14:57:32;;;;;;;;;;;;;;;;;;5050889;28;1060;-71
2022/04/11 14:59:58;;;;;;;;;;;;;;;;;;5051135;28;1914;-70
2022/04/11 15:02:25;;;;;;;;;;;;;;;;;;5050461;28;952;-71
2022/04/11 15:04:51;;;;;;;;;;;;;;;;;;5050699;28;1400;-71
2022/04/11 15:07:18;;;;;;;;;;;;;;;;;;5048580;28;1460;-71
2022/04/11 15:09:44;;;;;;;;;;;;;;;;;;5050568;28;815;-71
2022/04/11 15:12:11;;;;;;;;;;;;;;;;;;5050595;28;1071;-71
2022/04/11 15:14:37;;;;;;;;;;;;;;;;;;5050452;28;1320;-70
2022/04/11 15:17:03;;;;;;;;;;;;;;;;;;5050481;28;1122;-71
2022/04/11 15:19:31;;;;;;;;;;;;;;;;;;5050270;28;1910;-70
2022/04/11 15:21:57;;;;;;;;;;;;;;;;;;5051949;28;1054;-71
2022/04/11 15:24:23;;;;;;;;;;;;;;;;;;5050803;28;1396;-70
2022/04/11 15:26:49;;;;;;;;;;;;;;;;;;5050354;28;993;-70
2022/04/11 15:29:15;;;;;;;;;;;;;;;;;;5050503;28;1075;-70
2022/04/11 15:31:42;;;;;;;;;;;;;;;;;;5050452;28;802;-71
2022/04/11 15:34:09;;;;;;;;;;;;;;;;;;5050126;28;1439;-70
2022/04/11 15:36:37;;;;;;;;;;;;;;;;;;5050466;28;1083;-70
2022/04/11 15:39:03;;;;;;;;;;;;;;;;;;5050389;28;1979;-70
2022/04/11 15:41:29;;;;;;;;;;;;;;;;;;5050233;28;1060;-70
2022/04/11 15:43:56;;;;;;;;;;;;;;;;;;5050451;28;1306;-70
2022/04/11 15:46:22;;;;;;;;;;;;;;;;;;5051610;28;1114;-70
2022/04/11 15:48:48;;;;;;;;;;;;;;;;;;5054407;28;1024;-70
2022/04/11 15:51:14;;;;;;;;;;;;;;;;;;5054159;28;1118;-70
2022/04/11 15:53:42;;;;;;;;;;;;;;;;;;5054351;28;1294;-72
2022/04/11 15:56:08;;;;;;;;;;;;;;;;;;5054192;28;920;-70
2022/04/11 15:58:34;;;;;;;;;;;;;;;;;;5054361;28;1972;-70
2022/04/11 16:01:01;;;;;;;;;;;;;;;;;;5054426;28;1064;-71
2022/04/11 16:03:27;;;;;;;;;;;;;;;;;;5047404;28;1449;-70
2022/04/11 16:05:57;;;;;;;;;;;;;;;;;;5046277;28;1310;-70
2022/04/11 16:08:23;;;;;;;;;;;;;;;;;;5053854;28;1147;-71
2022/04/11 16:10:51;;;;;;;;;;;;;;;;;;5054216;28;912;-71
2022/04/11 16:13:17;;;;;;;;;;;;;;;;;;5054215;28;1313;-70
2022/04/11 16:15:43;;;;;;;;;;;;;;;;;;5053758;28;1120;-71
2022/04/11 16:18:09;;;;;;;;;;;;;;;;;;5053731;28;1110;-70
2022/04/11 16:20:36;;;;;;;;;;;;;;;;;;5050252;28;1919;-71
2022/04/11 16:23:02;;;;;;;;;;;;;;;;;;5044440;28;1336;-70
2022/04/11 16:25:28;;;;;;;;;;;;;;;;;;5053250;28;886;-70
2022/04/11 16:27:55;;;;;;;;;;;;;;;;;;5053351;28;1079;-71
2022/04/11 16:30:22;;;;;;;;;;;;;;;;;;5053566;28;795;-70
2022/04/11 16:32:48;;;;;;;;;;;;;;;;;;5053504;28;898;-70
2022/04/11 16:35:14;;;;;;;;;;;;;;;;;;5053490;28;1352;-70
2022/04/11 16:37:41;;;;;;;;;;;;;;;;;;5053091;28;1005;-70
2022/04/11 16:40:08;;;;;;;;;;;;;;;;;;5050158;28;1973;-70
2022/04/11 16:42:34;;;;;;;;;;;;;;;;;;5053768;28;697;-70
2022/04/11 16:45:01;;;;;;;;;;;;;;;;;;5053322;28;1315;-70
2022/04/11 16:47:28;;;;;;;;;;;;;;;;;;5032898;28;1688;-69
2022/04/11 16:49:55;;;;;;;;;;;;;;;;;;5031225;28;1076;-70
2022/04/11 16:52:21;;;;;;;;;;;;;;;;;;5031330;28;791;-70
2022/04/11 16:54:48;;;;;;;;;;;;;;;;;;5031223;28;1396;-70
2022/04/11 16:57:14;;;;;;;;;;;;;;;;;;5030915;28;906;-71
2022/04/11 16:59:40;;;;;;;;;;;;;;;;;;5030527;28;1906;-70
2022/04/11 17:02:08;;;;;;;;;;;;;;;;;;5031303;28;1103;-69
2022/04/11 17:04:34;;;;;;;;;;;;;;;;;;5030964;28;1368;-71
2022/04/11 17:07:01;;;;;;;;;;;;;;;;;;5031073;28;838;-69
2022/04/11 17:09:27;;;;;;;;;;;;;;;;;;5036534;28;1163;-69
2022/04/11 17:11:53;;;;;;;;;;;;;;;;;;5041894;28;1092;-69
2022/04/11 17:14:19;;;;;;;;;;;;;;;;;;5040335;28;1468;-70